Time;durP1;ratioP1;P1;durP2;ratioP2;P2;SDS_P1;SDS_P2;PMS_P1;PMS_P2;Temp;Humidity;BMP_temperature;BMP_pressure;BME280_temperature;BME280_humidity;BME280_pressure;Samples;Min_cycle;Max_cycle;Signal;HPM_P1;HPM_P2
2022/08/26 00:03:26;;;;;;;25.37;18.12;;;;;;;23.60;100.00;100108.00;2948999;79;21035;-86
2022/08/26 00:07:28;;;;;;;29.85;16.30;;;;;;;23.56;100.00;100110.81;2903902;80;21078;-87
2022/08/26 00:11:29;;;;;;;31.10;17.48;;;;;;;23.51;100.00;100100.08;2959437;79;21020;-87
2022/08/26 00:15:31;;;;;;;28.77;15.72;;;;;;;23.47;100.00;100088.00;2919487;81;21019;-86
2022/08/26 00:19:32;;;;;;;23.22;14.20;;;;;;;23.45;100.00;100084.67;2908239;80;21015;-87
2022/08/26 00:23:33;;;;;;;21.62;14.83;;;;;;;23.40;100.00;100083.14;2917599;81;21034;-86
2022/08/26 00:27:35;;;;;;;14.50;13.00;;;;;;;23.36;100.00;100076.45;2912603;80;21018;-86
2022/08/26 00:31:37;;;;;;;19.52;15.88;;;;;;;23.31;100.00;100072.20;2877600;81;21082;-86
2022/08/26 00:35:38;;;;;;;32.53;13.08;;;;;;;23.28;100.00;100065.86;2916841;81;21117;-86
2022/08/26 00:39:39;;;;;;;45.67;12.18;;;;;;;23.24;100.00;100070.84;2873298;81;21057;-85
2022/08/26 00:43:41;;;;;;;59.33;14.10;;;;;;;23.16;100.00;100066.48;2921776;81;21023;-86
2022/08/26 00:47:47;;;;;;;40.83;13.90;;;;;;;23.10;100.00;100074.13;2919383;79;21561;-86
2022/08/26 00:51:57;;;;;;;30.90;10.68;;;;;;;23.06;100.00;100072.36;2917201;80;21078;-86
2022/08/26 00:56:13;;;;;;;24.30;11.33;;;;;;;23.01;100.00;100072.72;2907411;81;21054;-86
2022/08/26 01:00:19;;;;;;;14.05;10.75;;;;;;;22.94;100.00;100064.05;2915571;80;21014;-87
2022/08/26 01:04:22;;;;;;;23.05;11.18;;;;;;;22.88;100.00;100059.50;2917670;80;21038;-87
2022/08/26 01:08:24;;;;;;;14.68;10.20;;;;;;;22.88;100.00;100049.16;2864934;81;21031;-87
2022/08/26 01:12:31;;;;;;;24.87;9.70;;;;;;;22.83;100.00;100053.89;2921591;79;21108;-86
2022/08/26 01:16:32;;;;;;;22.58;8.93;;;;;;;22.81;100.00;100057.34;2936683;79;21026;-86
2022/08/26 01:21:02;;;;;;;27.05;9.90;;;;;;;22.76;100.00;100053.90;2966172;79;21063;-86
2022/08/26 01:25:05;;;;;;;10.10;9.05;;;;;;;22.75;100.00;100060.87;2900003;80;20987;-86
2022/08/26 01:29:14;;;;;;;17.92;9.03;;;;;;;22.70;100.00;100062.04;2945611;79;21031;-86
2022/08/26 01:33:20;;;;;;;17.82;8.40;;;;;;;22.69;100.00;100051.70;2957542;79;21854;-86
2022/08/26 01:37:25;;;;;;;20.80;8.68;;;;;;;22.68;100.00;100050.04;2948349;79;20990;-85
2022/08/26 01:41:27;;;;;;;12.80;9.58;;;;;;;22.65;100.00;100056.73;2961811;79;21028;-86
2022/08/26 01:45:32;;;;;;;14.73;10.63;;;;;;;22.62;100.00;100052.25;2906261;79;21050;-86
2022/08/26 01:49:35;;;;;;;11.90;8.60;;;;;;;22.61;100.00;100054.66;2965436;77;21017;-86
2022/08/26 01:53:38;;;;;;;13.85;9.70;;;;;;;22.61;100.00;100059.56;2958536;79;21007;-86
2022/08/26 01:57:43;;;;;;;18.65;10.05;;;;;;;22.63;100.00;100060.19;2917042;79;21041;-86
2022/08/26 02:01:44;;;;;;;17.95;10.30;;;;;;;22.56;100.00;100057.17;2915433;80;20979;-86
2022/08/26 02:05:53;;;;;;;16.40;9.00;;;;;;;22.54;100.00;100058.72;2910404;80;21022;-86
2022/08/26 02:09:55;;;;;;;18.82;8.58;;;;;;;22.52;100.00;100061.66;2908765;79;21011;-86
2022/08/26 02:14:05;;;;;;;16.05;9.48;;;;;;;22.49;100.00;100056.64;2913783;80;21003;-86
2022/08/26 02:18:09;;;;;;;16.77;9.10;;;;;;;22.50;100.00;100055.62;2888399;80;21070;-86
2022/08/26 02:22:15;;;;;;;13.20;10.18;;;;;;;22.49;100.00;100057.17;2919268;81;21086;-86
2022/08/26 02:26:21;;;;;;;12.63;9.28;;;;;;;22.48;100.00;100059.58;2912268;80;21105;-86
2022/08/26 02:30:28;;;;;;;11.00;9.98;;;;;;;22.45;100.00;100057.26;2913462;81;21042;-86
2022/08/26 02:34:31;;;;;;;15.50;11.03;;;;;;;22.38;100.00;100052.66;2912643;79;21097;-86
2022/08/26 02:38:33;;;;;;;21.60;12.65;;;;;;;22.33;100.00;100054.35;2911580;80;20991;-85
2022/08/26 02:42:34;;;;;;;22.00;11.60;;;;;;;22.28;100.00;100049.55;2922654;80;21097;-84
2022/08/26 02:46:36;;;;;;;29.05;11.40;;;;;;;22.24;100.00;100051.02;2917070;79;21046;-86
2022/08/26 02:50:39;;;;;;;31.65;11.20;;;;;;;22.21;100.00;100046.84;2915512;80;21018;-85
2022/08/26 02:54:40;;;;;;;15.55;9.05;;;;;;;22.19;100.00;100050.28;2909841;80;21094;-86
2022/08/26 02:58:41;;;;;;;10.78;9.45;;;;;;;22.17;100.00;100048.81;2909924;80;21018;-87
2022/08/26 03:02:43;;;;;;;18.62;9.10;;;;;;;22.11;100.00;100049.97;2921395;79;20999;-87
2022/08/26 03:06:44;;;;;;;19.00;11.00;;;;;;;22.05;100.00;100049.95;2956531;79;21010;-87
2022/08/26 03:10:46;;;;;;;16.05;9.05;;;;;;;22.02;100.00;100051.23;2973042;79;21403;-87
2022/08/26 03:14:47;;;;;;;13.08;9.33;;;;;;;22.06;100.00;100043.50;2909873;79;21038;-86
2022/08/26 03:18:48;;;;;;;28.32;11.53;;;;;;;22.10;100.00;100036.63;2914302;80;21141;-89
2022/08/26 03:22:52;;;;;;;28.40;10.55;;;;;;;22.11;100.00;100036.42;2919792;81;21045;-89
2022/08/26 03:26:54;;;;;;;14.98;9.55;;;;;;;22.16;100.00;100036.31;2916112;80;21050;-88
2022/08/26 03:30:56;;;;;;;26.70;11.38;;;;;;;22.19;100.00;100043.52;2915191;80;20994;-88
2022/08/26 03:34:57;;;;;;;32.58;14.63;;;;;;;22.20;100.00;100046.53;2938637;80;21053;-89
2022/08/26 03:38:58;;;;;;;62.55;14.18;;;;;;;22.24;100.00;100036.94;2972330;78;21035;-87
2022/08/26 03:43:01;;;;;;;37.50;15.63;;;;;;;22.23;100.00;100033.92;2879301;79;21000;-89
2022/08/26 03:47:03;;;;;;;25.65;15.18;;;;;;;22.18;100.00;100038.29;2975355;78;21027;-88
2022/08/26 03:51:06;;;;;;;34.70;16.65;;;;;;;;;;2938852;78;20996;-88
2022/08/26 03:55:09;;;;;;;32.70;17.02;;;;;;;22.09;100.00;100033.09;2898481;80;21051;-89
2022/08/26 03:59:10;;;;;;;31.90;16.00;;;;;;;22.06;100.00;100030.81;2915312;81;22175;-87
2022/08/26 04:03:13;;;;;;;25.70;17.05;;;;;;;22.15;100.00;100026.52;2884245;81;21066;-89
2022/08/26 04:07:14;;;;;;;36.63;16.48;;;;;;;22.21;100.00;100030.59;2914037;81;21034;-89
2022/08/26 04:11:19;;;;;;;21.80;15.68;;;;;;;22.33;100.00;100022.66;2913320;80;21015;-88
2022/08/26 04:15:20;;;;;;;20.67;13.77;;;;;;;22.40;100.00;100024.02;2907851;80;21365;-88
2022/08/26 04:19:23;;;;;;;27.48;15.88;;;;;;;22.43;100.00;100028.19;2916093;79;21483;-87
2022/08/26 04:23:24;;;;;;;33.18;14.98;;;;;;;22.42;100.00;100025.98;2856974;80;21030;-88
2022/08/26 04:27:26;;;;;;;28.60;14.00;;;;;;;22.39;100.00;100028.58;2917970;79;21145;-88
2022/08/26 04:31:27;;;;;;;27.10;15.50;;;;;;;22.33;100.00;100028.61;2915420;81;20995;-88
2022/08/26 04:35:28;;;;;;;32.38;14.65;;;;;;;22.28;100.00;100029.23;2918051;79;21021;-89
2022/08/26 04:39:30;;;;;;;24.87;17.05;;;;;;;22.25;100.00;100022.89;2838269;80;21065;-86
2022/08/26 04:43:31;;;;;;;29.85;16.95;;;;;;;22.33;100.00;100028.08;2909910;80;21026;-88
2022/08/26 04:47:33;;;;;;;21.37;15.88;;;;;;;22.36;100.00;100033.61;2862065;80;20990;-89
2022/08/26 04:51:36;;;;;;;32.93;16.20;;;;;;;22.33;100.00;100028.08;2915364;79;21019;-88
2022/08/26 04:55:38;;;;;;;26.37;16.85;;;;;;;22.36;100.00;100030.91;2912486;79;21577;-90
2022/08/26 04:59:39;;;;;;;26.90;13.88;;;;;;;22.37;100.00;100027.96;2915215;79;21124;-89
2022/08/26 05:03:40;;;;;;;24.90;16.00;;;;;;;22.44;100.00;100030.67;2916184;80;21636;-89
2022/08/26 05:07:41;;;;;;;27.55;18.05;;;;;;;22.53;100.00;100028.09;2911961;80;21526;-87
2022/08/26 05:11:42;;;;;;;28.87;17.30;;;;;;;22.65;100.00;100021.50;2914495;80;21023;-88
2022/08/26 05:15:44;;;;;;;25.15;15.65;;;;;;;22.71;100.00;100031.17;2917210;80;21030;-90
2022/08/26 05:19:46;;;;;;;16.93;14.90;;;;;;;22.71;100.00;100035.23;2912588;80;21566;-90
2022/08/26 05:23:50;;;;;;;25.50;15.20;;;;;;;22.66;100.00;100036.72;2910876;80;21015;-91
2022/08/26 05:27:51;;;;;;;21.35;17.30;;;;;;;22.60;100.00;100041.64;2914290;79;21046;-89
2022/08/26 05:31:53;;;;;;;18.23;14.68;;;;;;;22.46;100.00;100035.89;2916932;80;20990;-90
2022/08/26 05:35:54;;;;;;;18.10;14.60;;;;;;;22.42;100.00;100038.18;2916716;80;21026;-90
2022/08/26 05:39:55;;;;;;;16.50;14.90;;;;;;;22.43;100.00;100042.55;2900315;80;21003;-90
2022/08/26 05:43:58;;;;;;;19.42;15.83;;;;;;;22.47;100.00;100038.94;2913380;80;21018;-89
2022/08/26 05:47:59;;;;;;;26.33;16.52;;;;;;;22.51;100.00;100038.83;2914041;79;21006;-90
2022/08/26 05:52:00;;;;;;;21.12;17.52;;;;;;;22.57;100.00;100043.39;2916001;80;21580;-90
2022/08/26 05:56:04;;;;;;;19.67;16.75;;;;;;;22.65;100.00;100037.77;2913387;81;20982;-89
2022/08/26 06:00:06;;;;;;;29.12;16.05;;;;;;;22.89;100.00;100029.12;2914529;80;21066;-88
2022/08/26 06:04:07;;;;;;;18.15;15.03;;;;;;;23.03;100.00;100031.30;2911231;80;21061;-90
2022/08/26 06:08:12;;;;;;;18.62;16.05;;;;;;;23.11;100.00;100023.75;2907109;81;21565;-89
2022/08/26 06:12:14;;;;;;;23.65;15.00;;;;;;;23.23;100.00;100029.33;2911709;80;21109;-91
2022/08/26 06:16:19;;;;;;;24.07;15.25;;;;;;;23.17;100.00;100023.92;2958083;78;21105;-89
2022/08/26 06:20:20;;;;;;;25.33;15.70;;;;;;;23.03;100.00;100018.55;2946173;79;21075;-90
2022/08/26 06:28:42;;;;;;;19.00;14.87;;;;;;;23.25;100.00;100017.77;2956819;79;20973;-91
2022/08/26 06:32:44;;;;;;;23.62;16.42;;;;;;;23.32;100.00;100022.31;2917434;80;21030;-89
2022/08/26 06:36:48;;;;;;;25.10;16.37;;;;;;;23.54;100.00;100020.11;2920079;80;21042;-90
2022/08/26 06:40:53;;;;;;;32.28;23.92;;;;;;;23.76;100.00;100021.11;2912753;81;21129;-90
2022/08/26 06:44:54;;;;;;;27.35;17.98;;;;;;;23.98;100.00;100028.89;2918092;80;21050;-88
2022/08/26 06:48:59;;;;;;;18.25;15.25;;;;;;;24.10;100.00;100030.69;2912723;79;21010;-88
2022/08/26 06:53:00;;;;;;;33.53;17.45;;;;;;;24.19;100.00;100037.22;2914121;79;21035;-90
2022/08/26 06:57:01;;;;;;;27.90;17.17;;;;;;;24.28;100.00;100041.31;2912808;79;21065;-86
2022/08/26 07:01:04;;;;;;;20.45;14.68;;;;;;;24.41;100.00;100032.73;2916343;80;21352;-90
2022/08/26 07:05:07;;;;;;;22.93;16.60;;;;;;;24.53;100.00;100038.57;2916417;81;21054;-88
2022/08/26 07:09:09;;;;;;;27.60;16.82;;;;;;;24.47;100.00;100038.62;2916133;79;21038;-90
2022/08/26 07:13:11;;;;;;;20.32;16.95;;;;;;;24.51;100.00;100030.32;2908159;80;21023;-91
2022/08/26 07:17:12;;;;;;;22.48;15.28;;;;;;;24.59;100.00;100036.84;2913104;81;21783;-90
2022/08/26 07:21:16;;;;;;;21.68;16.48;;;;;;;24.63;100.00;100037.20;2919299;81;21026;-90
2022/08/26 07:25:17;;;;;;;20.10;15.98;;;;;;;24.77;100.00;100036.59;2908546;80;21026;-90
2022/08/26 07:29:18;;;;;;;25.60;16.30;;;;;;;24.86;100.00;100030.29;2910335;80;21593;-90
2022/08/26 07:33:21;;;;;;;26.75;16.23;;;;;;;24.94;100.00;100025.38;2857733;81;21027;-89
2022/08/26 07:37:23;;;;;;;26.60;14.90;;;;;;;25.00;100.00;100024.19;2912671;79;21066;-90
2022/08/26 07:41:24;;;;;;;34.90;16.35;;;;;;;25.03;100.00;100025.08;2913822;80;21070;-90
2022/08/26 07:45:27;;;;;;;15.88;14.15;;;;;;;25.13;100.00;100025.36;2915301;80;21089;-90
2022/08/26 07:49:28;;;;;;;22.98;16.30;;;;;;;25.18;100.00;100024.68;2912513;81;21082;-90
2022/08/26 07:53:29;;;;;;;18.37;15.18;;;;;;;25.22;100.00;100026.72;2916803;79;21022;-90
2022/08/26 07:57:31;;;;;;;19.42;17.23;;;;;;;25.40;100.00;100029.11;2917652;81;21074;-90
2022/08/26 08:01:32;;;;;;;24.95;19.00;;;;;;;25.72;100.00;100017.97;2913797;81;21051;-90
2022/08/26 08:05:35;;;;;;;26.75;17.98;;;;;;;26.00;100.00;100016.50;2920639;80;20972;-91
2022/08/26 08:09:36;;;;;;;32.38;19.65;;;;;;;26.20;100.00;100023.54;2891874;81;21046;-91
2022/08/26 08:13:38;;;;;;;23.20;18.35;;;;;;;26.43;100.00;100023.23;2914897;80;21058;-90
2022/08/26 08:17:42;;;;;;;25.60;20.10;;;;;;;26.56;100.00;100027.61;2911627;80;21012;-87
2022/08/26 08:21:43;;;;;;;22.40;19.98;;;;;;;26.55;100.00;100019.98;2912358;79;21089;-87
2022/08/26 08:25:44;;;;;;;32.15;20.30;;;;;;;26.61;100.00;100023.11;2898629;80;21050;-88
2022/08/26 08:29:46;;;;;;;21.68;19.23;;;;;;;26.73;100.00;100018.18;2953829;79;21026;-89
2022/08/26 08:33:47;;;;;;;30.02;20.32;;;;;;;26.78;100.00;100016.92;2915813;80;21062;-89
2022/08/26 08:37:53;;;;;;;23.95;20.97;;;;;;;26.89;100.00;100018.80;2891875;81;21043;-88
2022/08/26 08:42:29;;;;;;;29.25;21.77;;;;;;;26.98;100.00;100010.25;2912617;80;21035;-90
2022/08/26 08:46:30;;;;;;;32.75;22.93;;;;;;;27.02;100.00;100016.88;2912716;81;20998;-91
2022/08/26 08:50:42;;;;;;;26.33;21.12;;;;;;;27.16;100.00;100008.71;2913318;80;21089;-90
2022/08/26 08:54:43;;;;;;;31.20;23.45;;;;;;;27.20;100.00;100007.15;2909457;81;21026;-86
2022/08/26 08:58:56;;;;;;;33.78;24.92;;;;;;;27.24;100.00;100008.86;2911435;79;21565;-87
2022/08/26 09:03:09;;;;;;;23.75;21.05;;;;;;;27.19;100.00;100004.65;2918077;80;21042;-91
2022/08/26 09:07:28;;;;;;;32.73;25.08;;;;;;;27.12;100.00;99998.00;2878701;81;20971;-88
2022/08/26 09:11:29;;;;;;;28.62;25.40;;;;;;;27.12;100.00;99999.36;2908706;80;21023;-91
2022/08/26 09:16:08;;;;;;;33.73;26.60;;;;;;;27.28;100.00;99999.63;2911846;80;21176;-89
2022/08/26 09:20:21;;;;;;;28.77;25.57;;;;;;;27.43;100.00;100001.28;2913741;80;21042;-92
2022/08/26 09:24:22;;;;;;;35.17;24.35;;;;;;;27.49;100.00;100004.94;2915130;79;21038;-90
2022/08/26 09:28:27;;;;;;;30.23;25.65;;;;;;;27.59;100.00;99999.67;2907683;81;20994;-87
2022/08/26 09:32:29;;;;;;;98.03;60.23;;;;;;;27.61;100.00;99996.19;2911577;80;21015;-91
2022/08/26 09:36:44;;;;;;;34.78;26.40;;;;;;;27.86;100.00;99985.39;2907397;81;21031;-90
2022/08/26 09:41:03;;;;;;;35.38;25.00;;;;;;;28.07;99.68;99983.79;2908753;79;21027;-89
2022/08/26 09:45:10;;;;;;;37.17;25.68;;;;;;;28.24;97.35;99982.97;2897089;80;21176;-90
2022/08/26 09:49:32;;;;;;;26.42;23.55;;;;;;;28.35;96.21;99979.31;2846413;79;21636;-90
2022/08/26 09:53:39;;;;;;;32.10;22.93;;;;;;;28.44;96.78;99972.88;2915915;79;20991;-92
2022/08/26 09:57:49;;;;;;;27.20;22.98;;;;;;;28.58;95.14;99970.59;2912920;80;21062;-90
2022/08/26 10:01:51;;;;;;;31.87;21.50;;;;;;;28.63;95.54;99959.70;2890690;81;21077;-89
2022/08/26 10:06:00;;;;;;;31.73;20.50;;;;;;;28.74;96.72;99959.84;2914315;80;20990;-88
2022/08/26 10:10:08;;;;;;;30.40;21.42;;;;;;;28.78;99.85;99954.95;2892830;80;21055;-90
2022/08/26 10:14:25;;;;;;;22.65;16.12;;;;;;;28.96;97.69;99956.29;2915324;81;22034;-91
2022/08/26 10:19:05;;;;;;;23.07;16.52;;;;;;;29.04;92.54;99951.19;2912022;80;21018;-91
2022/08/26 10:23:15;;;;;;;17.23;13.48;;;;;;;29.25;91.94;99940.97;2915194;80;21031;-90
2022/08/26 10:27:35;;;;;;;20.95;14.07;;;;;;;29.45;87.27;99934.33;2916088;79;21085;-91
2022/08/26 10:31:45;;;;;;;15.60;13.10;;;;;;;29.61;86.05;99924.87;2916616;80;21045;-91
2022/08/26 10:35:53;;;;;;;13.08;11.73;;;;;;;29.71;78.62;99920.86;2913643;80;21073;-91
2022/08/26 10:40:08;;;;;;;16.12;12.33;;;;;;;29.83;76.77;99915.19;2910784;79;21084;-91
2022/08/26 10:44:13;;;;;;;23.27;12.20;;;;;;;29.96;76.69;99916.63;2914584;80;21069;-89
2022/08/26 10:48:26;;;;;;;16.42;10.28;;;;;;;30.12;75.95;99909.34;2916205;79;21038;-91
2022/08/26 10:52:51;;;;;;;14.53;8.23;;;;;;;30.20;68.99;99900.63;2809225;82;21062;-90
2022/08/26 10:57:10;;;;;;;14.18;8.53;;;;;;;30.27;65.68;99894.91;2808432;82;21062;-91
2022/08/26 11:01:40;;;;;;;11.88;6.15;;;;;;;30.31;67.67;99892.44;2802859;83;21162;-91
2022/08/26 11:05:44;;;;;;;9.90;7.03;;;;;;;30.37;65.30;99894.13;2684950;87;31242;-91
2022/08/26 11:09:47;;;;;;;7.42;6.08;;;;;;;30.53;65.98;99884.55;2684343;87;21078;-91
2022/08/26 11:14:21;;;;;;;11.87;5.80;;;;;;;30.66;64.37;99886.00;2713470;86;21106;-91
2022/08/26 11:18:40;;;;;;;13.55;6.70;;;;;;;30.72;60.52;99880.25;2739430;84;21038;-91
2022/08/26 11:22:41;;;;;;;8.00;5.55;;;;;;;30.76;60.91;99867.66;2740027;85;21092;-90
2022/08/26 11:26:42;;;;;;;10.15;6.35;;;;;;;30.85;59.90;99867.92;2752161;84;21095;-91
2022/08/26 11:30:46;;;;;;;19.80;5.60;;;;;;;30.91;59.02;99866.86;2768674;84;21083;-93
2022/08/26 11:34:58;;;;;;;12.83;5.20;;;;;;;30.98;59.28;99869.34;2801233;83;21042;-92
2022/08/26 11:39:05;;;;;;;13.05;5.42;;;;;;;31.02;57.98;99862.73;2753950;81;21075;-91
2022/08/26 11:43:11;;;;;;;10.48;5.67;;;;;;;31.05;60.13;99857.53;2965018;78;21055;-91
2022/08/26 11:47:16;;;;;;;8.78;6.10;;;;;;;31.14;60.72;99854.22;2907094;80;21077;-90
2022/08/26 11:51:23;;;;;;;8.60;5.00;;;;;;;31.20;58.33;99849.87;2918935;81;21061;-91
2022/08/26 11:55:24;;;;;;;16.62;5.55;;;;;;;31.24;57.60;99849.31;2918333;80;21128;-91
2022/08/26 11:59:32;;;;;;;11.35;5.65;;;;;;;31.24;55.58;99844.66;2916563;80;21892;-92
2022/08/26 12:03:44;;;;;;;9.90;5.40;;;;;;;31.38;55.89;99844.92;2915020;80;21030;-91
2022/08/26 12:07:49;;;;;;;9.65;4.65;;;;;;;31.38;53.85;99838.61;2930179;79;21411;-91
2022/08/26 12:11:52;;;;;;;9.20;5.17;;;;;;;31.52;55.51;99838.30;2932077;78;20983;-91
2022/08/26 12:15:58;;;;;;;7.30;4.35;;;;;;;31.67;54.97;99831.97;2904215;80;21050;-91
2022/08/26 12:19:59;;;;;;;4.78;3.85;;;;;;;31.66;51.31;99831.70;2937610;78;21011;-92
2022/08/26 12:24:03;;;;;;;5.53;3.92;;;;;;;31.75;51.81;99826.45;2897310;80;21053;-93
2022/08/26 12:28:04;;;;;;;8.28;4.87;;;;;;;31.74;49.02;99817.37;2868355;80;21096;-92
2022/08/26 12:32:16;;;;;;;7.10;4.30;;;;;;;31.81;48.95;99817.66;2922995;79;21069;-92
2022/08/26 12:36:31;;;;;;;11.10;3.55;;;;;;;31.77;49.67;99814.09;2914292;80;21019;-92
2022/08/26 12:40:43;;;;;;;8.78;3.50;;;;;;;31.83;49.47;99804.45;2914393;80;21014;-89
2022/08/26 12:44:59;;;;;;;6.25;3.98;;;;;;;31.76;48.29;99801.42;2912865;81;21050;-92
2022/08/26 12:49:01;;;;;;;10.98;4.25;;;;;;;31.80;49.28;99798.97;2916149;79;21127;-89
2022/08/26 12:53:10;;;;;;;15.88;4.35;;;;;;;31.77;49.80;99794.04;2918045;81;21522;-93
2022/08/26 12:57:12;;;;;;;11.08;4.05;;;;;;;31.87;52.95;99786.30;2917263;80;21038;-91
2022/08/26 13:01:23;;;;;;;15.43;5.12;;;;;;;31.78;49.42;99786.06;2918065;80;21090;-92
2022/08/26 13:05:34;;;;;;;10.98;5.53;;;;;;;31.71;50.72;99782.20;2919074;80;21133;-94
2022/08/26 13:09:34;;;;;;;12.15;4.85;;;;;;;31.82;52.74;99766.52;2911916;80;21078;-93
2022/08/26 13:13:36;;;;;;;16.23;6.25;;;;;;;31.86;52.25;99760.72;2900910;80;21030;-92
2022/08/26 13:17:38;;;;;;;7.25;4.15;;;;;;;31.95;48.94;99742.28;2915651;81;21054;-92
2022/08/26 13:21:45;;;;;;;12.73;4.60;;;;;;;32.03;49.00;99741.67;2917586;79;21046;-91
2022/08/26 13:25:46;;;;;;;8.53;4.03;;;;;;;32.08;49.16;99735.34;2890142;79;21054;-90
2022/08/26 13:29:48;;;;;;;12.95;5.95;;;;;;;32.04;50.53;99732.32;2913561;81;21030;-90
2022/08/26 13:33:49;;;;;;;7.80;4.50;;;;;;;32.08;49.98;99732.59;2911805;81;21050;-91
2022/08/26 13:37:50;;;;;;;13.13;4.45;;;;;;;32.09;47.85;99731.48;2915816;80;21028;-91
2022/08/26 13:41:52;;;;;;;5.47;3.87;;;;;;;32.12;48.75;99733.66;2912694;81;21022;-90
2022/08/26 13:45:54;;;;;;;5.65;3.52;;;;;;;32.09;49.22;99719.10;2914181;80;21355;-91
2022/08/26 13:49:55;;;;;;;9.00;4.97;;;;;;;32.10;48.59;99727.62;2916498;80;21066;-92
2022/08/26 13:53:57;;;;;;;10.48;4.42;;;;;;;32.13;47.55;99716.88;2889344;80;21082;-93
2022/08/26 13:57:58;;;;;;;14.85;5.30;;;;;;;32.19;48.39;99713.52;2920577;81;21030;-91
2022/08/26 14:02:01;;;;;;;13.18;5.25;;;;;;;32.09;49.09;99706.72;2910599;80;21031;-92
2022/08/26 14:06:02;;;;;;;14.80;6.65;;;;;;;32.00;51.25;99707.88;2917059;80;21093;-91
2022/08/26 14:10:04;;;;;;;9.13;4.08;;;;;;;31.79;49.94;99703.02;2917218;79;21070;-91
2022/08/26 14:14:05;;;;;;;10.72;4.80;;;;;;;31.76;51.08;99707.14;2914121;80;21533;-92
2022/08/26 14:18:09;;;;;;;16.77;5.30;;;;;;;31.87;53.00;99710.70;2916425;79;21380;-92
2022/08/26 14:22:15;;;;;;;15.55;8.23;;;;;;;31.88;50.66;99713.14;2919794;80;21030;-92
2022/08/26 14:26:17;;;;;;;10.98;4.83;;;;;;;31.91;50.67;99707.64;2913715;79;21658;-92
2022/08/26 14:30:19;;;;;;;7.30;5.25;;;;;;;31.89;52.41;99707.11;2915171;79;21556;-92
2022/08/26 14:34:20;;;;;;;11.68;5.42;;;;;;;31.86;51.78;99699.43;2911012;80;21050;-91
2022/08/26 14:38:22;;;;;;;11.50;5.00;;;;;;;31.86;53.33;99694.73;2918192;80;21093;-93
2022/08/26 14:42:29;;;;;;;5.45;3.62;;;;;;;31.86;53.48;99698.86;2918554;79;21653;-92
2022/08/26 14:46:35;;;;;;;8.03;5.22;;;;;;;31.94;52.11;99698.02;2887659;79;21094;-91
2022/08/26 14:50:37;;;;;;;9.45;3.80;;;;;;;31.91;52.34;99682.90;2912416;79;21027;-93
2022/08/26 14:54:38;;;;;;;6.78;3.87;;;;;;;31.98;53.15;99677.89;2916736;79;21011;-93
2022/08/26 14:58:39;;;;;;;10.82;5.00;;;;;;;31.97;53.01;99680.37;2913999;81;21026;-93
2022/08/26 15:02:41;;;;;;;8.18;4.53;;;;;;;32.00;52.55;99673.50;2880102;80;21058;-91
2022/08/26 15:06:42;;;;;;;8.45;3.70;;;;;;;31.87;51.15;99677.13;2913896;80;21042;-91
2022/08/26 15:10:44;;;;;;;8.93;4.85;;;;;;;31.77;51.54;99672.52;2913763;80;21054;-91
2022/08/26 15:14:45;;;;;;;5.75;3.37;;;;;;;31.85;53.58;99672.47;2913783;81;21038;-93
2022/08/26 15:18:47;;;;;;;8.48;4.05;;;;;;;31.85;54.86;99673.04;2913961;79;21050;-92
2022/08/26 15:22:48;;;;;;;21.00;4.87;;;;;;;31.72;53.66;99674.42;2915721;79;21011;-91
2022/08/26 15:26:49;;;;;;;6.35;4.17;;;;;;;31.70;55.08;99667.86;2915298;80;21074;-92
2022/08/26 15:30:50;;;;;;;7.08;4.67;;;;;;;31.67;55.73;99668.42;2914356;80;21422;-92
2022/08/26 15:34:53;;;;;;;6.80;3.87;;;;;;;31.71;55.07;99661.25;2914606;81;21081;-92
2022/08/26 15:38:56;;;;;;;7.85;3.67;;;;;;;31.77;56.04;99654.64;2916015;80;21034;-92
2022/08/26 15:42:57;;;;;;;11.15;4.20;;;;;;;31.71;55.37;99658.50;2916088;80;21055;-91
2022/08/26 15:46:59;;;;;;;6.80;4.45;;;;;;;31.67;56.07;99658.80;2914206;80;21011;-90
2022/08/26 15:51:00;;;;;;;12.23;4.92;;;;;;;31.56;56.36;99659.95;2915452;79;20995;-92
2022/08/26 15:55:01;;;;;;;8.55;4.42;;;;;;;31.45;58.59;99658.63;2917167;79;21537;-90
2022/08/26 15:59:06;;;;;;;7.33;4.12;;;;;;;31.43;58.74;99649.81;2871690;80;21046;-92
2022/08/26 16:03:08;;;;;;;6.85;4.67;;;;;;;31.37;58.43;99663.31;2913580;80;21065;-91
2022/08/26 16:07:09;;;;;;;6.87;4.75;;;;;;;31.35;59.22;99650.41;2918407;81;20967;-91
2022/08/26 16:11:12;;;;;;;4.20;3.77;;;;;;;31.32;59.75;99656.47;2911829;80;21037;-91
2022/08/26 16:15:13;;;;;;;17.15;4.65;;;;;;;31.31;60.35;99660.33;2913656;80;21003;-91
2022/08/26 16:19:14;;;;;;;6.08;4.05;;;;;;;31.25;60.65;99651.27;2916622;80;21010;-91
2022/08/26 16:23:16;;;;;;;7.05;4.95;;;;;;;31.20;62.62;99652.67;2917633;80;21037;-91
2022/08/26 16:27:17;;;;;;;8.80;4.08;;;;;;;31.18;63.62;99654.28;2918277;79;21014;-93
2022/08/26 16:31:20;;;;;;;10.58;4.70;;;;;;;31.16;62.95;99648.81;2914277;79;21057;-91
2022/08/26 16:35:22;;;;;;;12.60;5.78;;;;;;;31.06;63.95;99653.78;2913383;79;21105;-91
2022/08/26 16:39:23;;;;;;;7.25;4.10;;;;;;;30.94;65.14;99649.94;2916280;80;21010;-92
2022/08/26 16:43:24;;;;;;;5.37;4.87;;;;;;;30.81;67.15;99643.10;2914844;81;21048;-90
2022/08/26 16:47:25;;;;;;;7.00;4.00;;;;;;;30.70;68.11;99649.72;2912259;80;21046;-92
2022/08/26 16:51:27;;;;;;;7.53;3.75;;;;;;;30.59;70.27;99642.83;2913919;80;21081;-93
2022/08/26 16:55:28;;;;;;;13.40;4.65;;;;;;;30.43;70.68;99639.27;2911742;79;21102;-92
2022/08/26 16:59:32;;;;;;;9.83;4.62;;;;;;;30.25;68.66;99635.70;2913615;80;21022;-91
2022/08/26 17:03:34;;;;;;;7.92;4.78;;;;;;;30.10;67.93;99637.33;2914604;80;21060;-92
2022/08/26 17:07:36;;;;;;;6.33;4.92;;;;;;;29.96;70.07;99641.12;2912550;81;21715;-94
2022/08/26 17:11:38;;;;;;;10.38;5.90;;;;;;;29.82;71.80;99648.20;2910318;81;21093;-91
2022/08/26 17:15:39;;;;;;;9.15;4.95;;;;;;;29.67;71.48;99655.28;2881105;80;21097;-91
2022/08/26 17:19:41;;;;;;;8.30;5.12;;;;;;;29.49;71.22;99646.47;2916493;79;21589;-93
2022/08/26 17:23:43;;;;;;;7.75;3.90;;;;;;;29.33;71.00;99651.01;2920788;79;21026;-93
2022/08/26 17:27:45;;;;;;;8.90;4.92;;;;;;;29.19;70.45;99647.93;2865729;81;21031;-93
2022/08/26 17:31:46;;;;;;;18.92;5.00;;;;;;;28.98;70.70;99640.70;2909713;80;21035;-93
2022/08/26 17:35:47;;;;;;;6.05;3.25;;;;;;;28.79;70.84;99639.72;2916223;79;21007;-92
2022/08/26 17:39:48;;;;;;;13.48;4.65;;;;;;;28.59;69.69;99630.81;2918250;79;21094;-94
2022/08/26 17:43:49;;;;;;;9.45;4.60;;;;;;;28.21;68.30;99630.78;2879744;79;21082;-90
2022/08/26 17:47:53;;;;;;;11.18;4.28;;;;;;;28.21;68.30;99630.78;2916191;80;21094;-93
2022/08/26 17:51:58;;;;;;;11.80;4.45;;;;;;;28.01;68.65;99628.11;2912799;79;21034;-92
2022/08/26 17:55:59;;;;;;;7.90;4.55;;;;;;;27.89;69.55;99624.17;2893088;80;21168;-93
2022/08/26 18:00:00;;;;;;;9.60;4.17;;;;;;;27.74;70.52;99623.47;2896428;80;21050;-91
2022/08/26 18:04:02;;;;;;;9.70;4.62;;;;;;;27.58;71.60;99621.09;2917040;79;21022;-92
2022/08/26 18:08:04;;;;;;;16.55;5.12;;;;;;;27.41;72.81;99619.77;2915486;81;21006;-92
2022/08/26 18:12:05;;;;;;;7.30;4.85;;;;;;;27.27;73.21;99630.78;2911045;81;21050;-94
2022/08/26 18:16:08;;;;;;;15.50;4.97;;;;;;;27.10;73.81;99631.64;2917345;81;21042;-94
2022/08/26 18:20:14;;;;;;;12.85;5.17;;;;;;;27.00;74.16;99631.52;2919119;80;21070;-92
2022/08/26 18:24:16;;;;;;;9.45;4.62;;;;;;;26.87;75.40;99636.23;2914809;79;21042;-91
2022/08/26 18:28:17;;;;;;;8.35;4.42;;;;;;;26.74;76.33;99636.58;2915007;79;21034;-92
2022/08/26 18:32:18;;;;;;;5.35;4.62;;;;;;;26.64;76.78;99647.60;2910546;80;21082;-92
2022/08/26 18:36:27;;;;;;;10.30;4.67;;;;;;;26.54;76.90;99666.54;2913872;79;21093;-92
2022/08/26 18:40:29;;;;;;;7.47;5.40;;;;;;;26.42;77.93;99669.86;2908701;81;21117;-93
2022/08/26 18:44:32;;;;;;;7.17;5.25;;;;;;;26.31;78.31;99680.58;2914312;81;21049;-92
2022/08/26 18:48:33;;;;;;;10.32;4.10;;;;;;;26.16;79.25;99685.73;2912527;80;21128;-91